SWA1600 KOAK-KLAX
Flight info
| Callsign | SWA1600 |
|---|---|
| Flight time | 1h 5m |
| Altitude | 41000 |
| Route | CNDEL5 SUSEY EBAYE BURGL IRNMN2 |
| Aircraft | B736/M-SDE2E3FGHIRWXY/LB1 |
Departure
| Time | 2026-05-04 23:51 |
|---|---|
| Airport | San Francisco Bay Oakland International Airport (KOAK) |
Arrival
| Time | 2026-05-05 00:56 |
|---|---|
| Airport | Los Angeles International Airport (KLAX) |
| Time | Latitude | Longitude | Altitude | Speed | Heading |
|---|---|---|---|---|---|
| 2026-05-04 23:27 | 37.70899 | -122.21368 | 16 ft | 0 kts | 118° |
| 2026-05-04 23:43 | 37.70905 | -122.21383 | 15 ft | 2 kts | 116° |
| 2026-05-04 23:43 | 37.70912 | -122.21402 | 18 ft | 2 kts | 112° |
| 2026-05-04 23:44 | 37.70916 | -122.21414 | 17 ft | 2 kts | 114° |
| 2026-05-04 23:44 | 37.70924 | -122.21432 | 18 ft | 2 kts | 148° |
| 2026-05-04 23:44 | 37.70938 | -122.21438 | 16 ft | 1 kts | 187° |
| 2026-05-04 23:44 | 37.70942 | -122.21438 | 16 ft | 0 kts | 190° |
| 2026-05-04 23:47 | 37.70939 | -122.21439 | 17 ft | 2 kts | 196° |
| 2026-05-04 23:47 | 37.70910 | -122.21474 | 16 ft | 7 kts | 218° |
| 2026-05-04 23:48 | 37.70908 | -122.21476 | 16 ft | 0 kts | 218° |
| 2026-05-04 23:48 | 37.70886 | -122.21501 | 17 ft | 11 kts | 226° |
| 2026-05-04 23:49 | 37.70851 | -122.21617 | 18 ft | 14 kts | 225° |
| 2026-05-04 23:49 | 37.70771 | -122.21703 | 20 ft | 17 kts | 221° |
| 2026-05-04 23:49 | 37.70657 | -122.21779 | 20 ft | 21 kts | 170° |
| 2026-05-04 23:49 | 37.70543 | -122.21639 | 19 ft | 26 kts | 129° |
| 2026-05-04 23:50 | 37.70416 | -122.21450 | 16 ft | 28 kts | 131° |
| 2026-05-04 23:50 | 37.70270 | -122.21360 | 18 ft | 16 kts | 165° |
| 2026-05-04 23:50 | 37.70175 | -122.21420 | 17 ft | 16 kts | 229° |
| 2026-05-04 23:50 | 37.70191 | -122.21532 | 15 ft | 15 kts | 328° |
| 2026-05-04 23:51 | 37.70313 | -122.21678 | 15 ft | 61 kts | 310° |
| 2026-05-04 23:51 | 37.70828 | -122.22463 | 38 ft | 166 kts | 309° |
| 2026-05-04 23:51 | 37.71688 | -122.23776 | 727 ft | 213 kts | 308° |
| 2026-05-04 23:51 | 37.72714 | -122.25270 | 1921 ft | 235 kts | 310° |
| 2026-05-04 23:52 | 37.73872 | -122.26830 | 1987 ft | 243 kts | 311° |
| 2026-05-04 23:52 | 37.74958 | -122.28409 | 1999 ft | 233 kts | 308° |
| 2026-05-04 23:52 | 37.75968 | -122.29968 | 1989 ft | 226 kts | 307° |
| 2026-05-04 23:52 | 37.76943 | -122.31486 | 2076 ft | 219 kts | 307° |
| 2026-05-04 23:53 | 37.77932 | -122.33002 | 2309 ft | 231 kts | 308° |
| 2026-05-04 23:53 | 37.78819 | -122.34690 | 3354 ft | 231 kts | 289° |
| 2026-05-04 23:53 | 37.79005 | -122.36708 | 4261 ft | 239 kts | 260° |
| 2026-05-04 23:53 | 37.78353 | -122.38628 | 5206 ft | 241 kts | 229° |
| 2026-05-04 23:54 | 37.77034 | -122.39877 | 6131 ft | 244 kts | 199° |
| 2026-05-04 23:54 | 37.75362 | -122.40118 | 7015 ft | 246 kts | 169° |
| 2026-05-04 23:54 | 37.73783 | -122.39264 | 7859 ft | 250 kts | 146° |
| 2026-05-04 23:54 | 37.72376 | -122.37935 | 8682 ft | 256 kts | 140° |
| 2026-05-04 23:55 | 37.70990 | -122.36475 | 9519 ft | 262 kts | 139° |
| 2026-05-04 23:55 | 37.69584 | -122.34968 | 10311 ft | 267 kts | 138° |
| 2026-05-04 23:55 | 37.66696 | -122.31888 | 11883 ft | 275 kts | 138° |
| 2026-05-04 23:56 | 37.65217 | -122.30326 | 12670 ft | 279 kts | 138° |
| 2026-05-04 23:56 | 37.63716 | -122.28749 | 13441 ft | 283 kts | 138° |
| 2026-05-04 23:56 | 37.62187 | -122.27150 | 14179 ft | 286 kts | 138° |
| 2026-05-04 23:56 | 37.60650 | -122.25547 | 14925 ft | 287 kts | 137° |
| 2026-05-04 23:57 | 37.59107 | -122.23944 | 15674 ft | 287 kts | 137° |
| 2026-05-04 23:57 | 37.57556 | -122.22334 | 16400 ft | 289 kts | 137° |
| 2026-05-04 23:57 | 37.56018 | -122.20740 | 17085 ft | 291 kts | 138° |
| 2026-05-04 23:57 | 37.54446 | -122.19113 | 17793 ft | 294 kts | 137° |
| 2026-05-04 23:58 | 37.52858 | -122.17470 | 18465 ft | 296 kts | 137° |
| 2026-05-04 23:58 | 37.51255 | -122.15813 | 18920 ft | 299 kts | 137° |
| 2026-05-04 23:58 | 37.49637 | -122.14142 | 19045 ft | 302 kts | 137° |
| 2026-05-04 23:58 | 37.48013 | -122.12466 | 19046 ft | 302 kts | 137° |
| 2026-05-04 23:59 | 37.46393 | -122.10797 | 19052 ft | 300 kts | 137° |
| 2026-05-04 23:59 | 37.44777 | -122.09132 | 19056 ft | 300 kts | 137° |
| 2026-05-04 23:59 | 37.43164 | -122.07472 | 19051 ft | 300 kts | 137° |
| 2026-05-04 23:59 | 37.41548 | -122.05807 | 19046 ft | 300 kts | 137° |
| 2026-05-05 00:00 | 37.39937 | -122.04151 | 19055 ft | 300 kts | 137° |
| 2026-05-05 00:00 | 37.39409 | -122.03607 | 19135 ft | 301 kts | 137° |
| 2026-05-05 00:00 | 37.36660 | -122.00781 | 20070 ft | 306 kts | 136° |
| 2026-05-05 00:00 | 37.35009 | -121.99085 | 20735 ft | 307 kts | 136° |
| 2026-05-05 00:01 | 37.33367 | -121.97399 | 21355 ft | 310 kts | 135° |
| 2026-05-05 00:01 | 37.31685 | -121.95673 | 21948 ft | 314 kts | 135° |
| 2026-05-05 00:01 | 37.29987 | -121.93930 | 22560 ft | 316 kts | 135° |
| 2026-05-05 00:01 | 37.28274 | -121.92175 | 23162 ft | 319 kts | 135° |
| 2026-05-05 00:02 | 37.26545 | -121.90404 | 23739 ft | 322 kts | 134° |
| 2026-05-05 00:02 | 37.24800 | -121.88617 | 24239 ft | 324 kts | 135° |
| 2026-05-05 00:02 | 37.23045 | -121.86822 | 24746 ft | 327 kts | 135° |
| 2026-05-05 00:02 | 37.21277 | -121.85016 | 25252 ft | 329 kts | 135° |
| 2026-05-05 00:03 | 37.19498 | -121.83198 | 25749 ft | 331 kts | 135° |
| 2026-05-05 00:03 | 37.17705 | -121.81368 | 26258 ft | 334 kts | 135° |
| 2026-05-05 00:03 | 37.15897 | -121.79522 | 26747 ft | 337 kts | 135° |
| 2026-05-05 00:03 | 37.14072 | -121.77662 | 27222 ft | 339 kts | 135° |
| 2026-05-05 00:04 | 37.12237 | -121.75791 | 27677 ft | 342 kts | 135° |
| 2026-05-05 00:04 | 37.10376 | -121.73896 | 28106 ft | 345 kts | 135° |
| 2026-05-05 00:04 | 37.08508 | -121.71996 | 28582 ft | 347 kts | 136° |
| 2026-05-05 00:04 | 37.06628 | -121.70084 | 29026 ft | 350 kts | 136° |
| 2026-05-05 00:05 | 37.04727 | -121.68152 | 29469 ft | 353 kts | 136° |
| 2026-05-05 00:05 | 37.02810 | -121.66205 | 29884 ft | 356 kts | 136° |
| 2026-05-05 00:05 | 37.00879 | -121.64246 | 30238 ft | 359 kts | 137° |
| 2026-05-05 00:05 | 36.98927 | -121.62266 | 30525 ft | 363 kts | 137° |
| 2026-05-05 00:06 | 36.96959 | -121.60271 | 30806 ft | 366 kts | 138° |
| 2026-05-05 00:06 | 36.94969 | -121.58257 | 31092 ft | 369 kts | 138° |
| 2026-05-05 00:06 | 36.92970 | -121.56234 | 31372 ft | 371 kts | 138° |
| 2026-05-05 00:06 | 36.90956 | -121.54198 | 31644 ft | 374 kts | 139° |
| 2026-05-05 00:07 | 36.88924 | -121.52146 | 31901 ft | 377 kts | 139° |
| 2026-05-05 00:07 | 36.86877 | -121.50079 | 32132 ft | 380 kts | 140° |
| 2026-05-05 00:07 | 36.84815 | -121.47997 | 32359 ft | 382 kts | 140° |
| 2026-05-05 00:07 | 36.82740 | -121.45904 | 32588 ft | 385 kts | 141° |
| 2026-05-05 00:08 | 36.80653 | -121.43801 | 32814 ft | 387 kts | 141° |
| 2026-05-05 00:08 | 36.78582 | -121.41715 | 33047 ft | 389 kts | 142° |
| 2026-05-05 00:08 | 36.76469 | -121.39589 | 33256 ft | 391 kts | 142° |
| 2026-05-05 00:08 | 36.74345 | -121.37452 | 33460 ft | 393 kts | 143° |
| 2026-05-05 00:09 | 36.72211 | -121.35307 | 33653 ft | 395 kts | 143° |
| 2026-05-05 00:09 | 36.70069 | -121.33155 | 33843 ft | 397 kts | 143° |
| 2026-05-05 00:09 | 36.67912 | -121.30990 | 34056 ft | 398 kts | 143° |
| 2026-05-05 00:10 | 36.63510 | -121.26583 | 34217 ft | 417 kts | 143° |
| 2026-05-05 00:10 | 36.61219 | -121.24292 | 34312 ft | 428 kts | 143° |
| 2026-05-05 00:10 | 36.58873 | -121.21945 | 34396 ft | 438 kts | 143° |
| 2026-05-05 00:11 | 36.54035 | -121.17108 | 34573 ft | 454 kts | 143° |
| 2026-05-05 00:11 | 36.51549 | -121.14624 | 34745 ft | 460 kts | 143° |
| 2026-05-05 00:11 | 36.49044 | -121.12124 | 34973 ft | 463 kts | 143° |
| 2026-05-05 00:11 | 36.46530 | -121.09616 | 35350 ft | 462 kts | 144° |
| 2026-05-05 00:12 | 36.44034 | -121.07120 | 35804 ft | 460 kts | 143° |
| 2026-05-05 00:12 | 36.41717 | -121.04370 | 36180 ft | 462 kts | 135° |
| 2026-05-05 00:12 | 36.39596 | -121.01366 | 36508 ft | 463 kts | 134° |
| 2026-05-05 00:12 | 36.37512 | -120.98317 | 36819 ft | 464 kts | 134° |
| 2026-05-05 00:13 | 36.35436 | -120.95258 | 37183 ft | 463 kts | 134° |
| 2026-05-05 00:13 | 36.33358 | -120.92211 | 37557 ft | 462 kts | 134° |
| 2026-05-05 00:13 | 36.31274 | -120.89179 | 37912 ft | 461 kts | 134° |
| 2026-05-05 00:13 | 36.29184 | -120.86163 | 38246 ft | 461 kts | 135° |
| 2026-05-05 00:14 | 36.27092 | -120.83159 | 38591 ft | 460 kts | 135° |
| 2026-05-05 00:14 | 36.25000 | -120.80165 | 38885 ft | 459 kts | 135° |
| 2026-05-05 00:14 | 36.22907 | -120.77174 | 39144 ft | 459 kts | 135° |
| 2026-05-05 00:14 | 36.20815 | -120.74188 | 39378 ft | 459 kts | 135° |
| 2026-05-05 00:15 | 36.18725 | -120.71208 | 39652 ft | 458 kts | 135° |
| 2026-05-05 00:15 | 36.16668 | -120.68275 | 39918 ft | 456 kts | 136° |
| 2026-05-05 00:15 | 36.14586 | -120.65309 | 40140 ft | 457 kts | 136° |
| 2026-05-05 00:15 | 36.12505 | -120.62346 | 40370 ft | 456 kts | 136° |
| 2026-05-05 00:16 | 36.10423 | -120.59386 | 40566 ft | 456 kts | 136° |
| 2026-05-05 00:16 | 36.08343 | -120.56430 | 40753 ft | 456 kts | 136° |
| 2026-05-05 00:16 | 36.06258 | -120.53470 | 40951 ft | 457 kts | 136° |
| 2026-05-05 00:17 | 36.02080 | -120.47546 | 41027 ft | 456 kts | 136° |
| 2026-05-05 00:17 | 35.97910 | -120.41640 | 41038 ft | 456 kts | 136° |
| 2026-05-05 00:18 | 35.93731 | -120.35736 | 41032 ft | 457 kts | 136° |
| 2026-05-05 00:18 | 35.89537 | -120.29817 | 41031 ft | 458 kts | 136° |
| 2026-05-05 00:19 | 35.84948 | -120.24489 | 41020 ft | 447 kts | 152° |
| 2026-05-05 00:19 | 35.79702 | -120.20567 | 41024 ft | 443 kts | 155° |
| 2026-05-05 00:20 | 35.74408 | -120.16674 | 41021 ft | 443 kts | 154° |
| 2026-05-05 00:20 | 35.69153 | -120.12726 | 41032 ft | 442 kts | 154° |
| 2026-05-05 00:21 | 35.63903 | -120.08770 | 41023 ft | 442 kts | 154° |
| 2026-05-05 00:21 | 35.58674 | -120.04820 | 41024 ft | 441 kts | 154° |
| 2026-05-05 00:22 | 35.53455 | -120.00880 | 41025 ft | 440 kts | 154° |
| 2026-05-05 00:22 | 35.48241 | -119.96953 | 41020 ft | 439 kts | 155° |
| 2026-05-05 00:23 | 35.43031 | -119.93035 | 41010 ft | 439 kts | 155° |
| 2026-05-05 00:23 | 35.37896 | -119.89172 | 40997 ft | 420 kts | 155° |
| 2026-05-05 00:23 | 35.35453 | -119.87333 | 41000 ft | 406 kts | 155° |
| 2026-05-05 00:24 | 35.33081 | -119.85553 | 41000 ft | 391 kts | 156° |
| 2026-05-05 00:24 | 35.30797 | -119.83841 | 40992 ft | 378 kts | 156° |
| 2026-05-05 00:24 | 35.28577 | -119.82166 | 41008 ft | 375 kts | 154° |
| 2026-05-05 00:25 | 35.24258 | -119.78297 | 40842 ft | 393 kts | 150° |
| 2026-05-05 00:25 | 35.22093 | -119.76221 | 40291 ft | 398 kts | 150° |
| 2026-05-05 00:25 | 35.19919 | -119.74136 | 39462 ft | 408 kts | 150° |
| 2026-05-05 00:25 | 35.17643 | -119.71975 | 38513 ft | 420 kts | 150° |
| 2026-05-05 00:26 | 35.15302 | -119.69769 | 37465 ft | 429 kts | 151° |
| 2026-05-05 00:26 | 35.12912 | -119.67529 | 36488 ft | 436 kts | 152° |
| 2026-05-05 00:26 | 35.10489 | -119.65264 | 35592 ft | 441 kts | 152° |
| 2026-05-05 00:26 | 35.08050 | -119.62987 | 34931 ft | 440 kts | 152° |
| 2026-05-05 00:27 | 35.05637 | -119.60731 | 34490 ft | 433 kts | 153° |
| 2026-05-05 00:27 | 35.03261 | -119.58512 | 34057 ft | 427 kts | 153° |
| 2026-05-05 00:27 | 35.00911 | -119.56325 | 33510 ft | 422 kts | 153° |
| 2026-05-05 00:27 | 34.98585 | -119.54169 | 32929 ft | 419 kts | 154° |
| 2026-05-05 00:28 | 34.96273 | -119.52027 | 32375 ft | 415 kts | 154° |
| 2026-05-05 00:28 | 34.93981 | -119.49904 | 31849 ft | 412 kts | 154° |
| 2026-05-05 00:28 | 34.92473 | -119.48508 | 31507 ft | 410 kts | 154° |
| 2026-05-05 00:28 | 34.90211 | -119.46427 | 31013 ft | 405 kts | 155° |
| 2026-05-05 00:29 | 34.87952 | -119.44395 | 30516 ft | 402 kts | 155° |
| 2026-05-05 00:29 | 34.85705 | -119.42393 | 29992 ft | 398 kts | 155° |
| 2026-05-05 00:29 | 34.83477 | -119.40412 | 29393 ft | 396 kts | 155° |
| 2026-05-05 00:29 | 34.81263 | -119.38440 | 28826 ft | 393 kts | 155° |
| 2026-05-05 00:30 | 34.79067 | -119.36479 | 28275 ft | 390 kts | 154° |
| 2026-05-05 00:30 | 34.76887 | -119.34533 | 27735 ft | 387 kts | 154° |
| 2026-05-05 00:30 | 34.74723 | -119.32602 | 27190 ft | 385 kts | 154° |
| 2026-05-05 00:30 | 34.72557 | -119.30698 | 26653 ft | 382 kts | 154° |
| 2026-05-05 00:31 | 34.70401 | -119.28819 | 26133 ft | 380 kts | 154° |
| 2026-05-05 00:31 | 34.68257 | -119.26950 | 25611 ft | 378 kts | 153° |
| 2026-05-05 00:31 | 34.66124 | -119.25089 | 25091 ft | 376 kts | 153° |
| 2026-05-05 00:31 | 34.64025 | -119.23263 | 24596 ft | 375 kts | 153° |
| 2026-05-05 00:32 | 34.61902 | -119.21431 | 24126 ft | 373 kts | 153° |
| 2026-05-05 00:32 | 34.59787 | -119.19611 | 23696 ft | 372 kts | 153° |
| 2026-05-05 00:32 | 34.57685 | -119.17801 | 23207 ft | 369 kts | 152° |
| 2026-05-05 00:32 | 34.55598 | -119.15997 | 22721 ft | 367 kts | 152° |
| 2026-05-05 00:33 | 34.53546 | -119.14184 | 22246 ft | 364 kts | 151° |
| 2026-05-05 00:33 | 34.51516 | -119.12379 | 21831 ft | 360 kts | 151° |
| 2026-05-05 00:33 | 34.49505 | -119.10591 | 21400 ft | 357 kts | 150° |
| 2026-05-05 00:33 | 34.47505 | -119.08818 | 20945 ft | 355 kts | 150° |
| 2026-05-05 00:34 | 34.45518 | -119.07061 | 20547 ft | 352 kts | 150° |
| 2026-05-05 00:34 | 34.43544 | -119.05322 | 20126 ft | 349 kts | 150° |
| 2026-05-05 00:34 | 34.41581 | -119.03617 | 19729 ft | 346 kts | 150° |
| 2026-05-05 00:34 | 34.39625 | -119.01928 | 19326 ft | 343 kts | 150° |
| 2026-05-05 00:35 | 34.37686 | -119.00252 | 18914 ft | 341 kts | 149° |
| 2026-05-05 00:35 | 34.35768 | -118.98594 | 18490 ft | 336 kts | 149° |
| 2026-05-05 00:35 | 34.33901 | -118.96973 | 17913 ft | 334 kts | 148° |
| 2026-05-05 00:35 | 34.32006 | -118.95268 | 17272 ft | 336 kts | 147° |
| 2026-05-05 00:36 | 34.30172 | -118.93592 | 16838 ft | 334 kts | 147° |
| 2026-05-05 00:36 | 34.28327 | -118.91908 | 16430 ft | 330 kts | 147° |
| 2026-05-05 00:36 | 34.26498 | -118.90247 | 15986 ft | 328 kts | 147° |
| 2026-05-05 00:36 | 34.24673 | -118.88586 | 15531 ft | 327 kts | 147° |
| 2026-05-05 00:37 | 34.22863 | -118.86923 | 15106 ft | 325 kts | 146° |
| 2026-05-05 00:37 | 34.21068 | -118.85271 | 14661 ft | 324 kts | 146° |
| 2026-05-05 00:37 | 34.19277 | -118.83625 | 14234 ft | 323 kts | 146° |
| 2026-05-05 00:37 | 34.17490 | -118.81985 | 13832 ft | 321 kts | 146° |
| 2026-05-05 00:38 | 34.15755 | -118.80337 | 13626 ft | 313 kts | 143° |
| 2026-05-05 00:38 | 34.14145 | -118.78613 | 13315 ft | 308 kts | 141° |
| 2026-05-05 00:38 | 34.12571 | -118.76865 | 12922 ft | 306 kts | 141° |
| 2026-05-05 00:38 | 34.11011 | -118.75134 | 12521 ft | 304 kts | 141° |
| 2026-05-05 00:39 | 34.09449 | -118.73415 | 12154 ft | 302 kts | 141° |
| 2026-05-05 00:39 | 34.07895 | -118.71720 | 11793 ft | 300 kts | 141° |
| 2026-05-05 00:39 | 34.06355 | -118.70045 | 11459 ft | 297 kts | 141° |
| 2026-05-05 00:39 | 34.04830 | -118.68390 | 11169 ft | 293 kts | 141° |
| 2026-05-05 00:40 | 34.03450 | -118.66631 | 10975 ft | 289 kts | 125° |
| 2026-05-05 00:40 | 34.02737 | -118.64369 | 10695 ft | 291 kts | 102° |
| 2026-05-05 00:40 | 34.02500 | -118.61948 | 10363 ft | 291 kts | 98° |
| 2026-05-05 00:40 | 34.02295 | -118.59528 | 10036 ft | 289 kts | 98° |
| 2026-05-05 00:41 | 34.02082 | -118.57116 | 9689 ft | 288 kts | 98° |
| 2026-05-05 00:41 | 34.01864 | -118.54724 | 9305 ft | 287 kts | 98° |
| 2026-05-05 00:41 | 34.01646 | -118.52374 | 8930 ft | 283 kts | 98° |
| 2026-05-05 00:41 | 34.01424 | -118.50013 | 8405 ft | 284 kts | 97° |
| 2026-05-05 00:42 | 34.01201 | -118.47643 | 7965 ft | 283 kts | 98° |
| 2026-05-05 00:42 | 34.01063 | -118.45279 | 7484 ft | 284 kts | 86° |
| 2026-05-05 00:42 | 34.01383 | -118.42958 | 7143 ft | 279 kts | 77° |
| 2026-05-05 00:42 | 34.01814 | -118.40701 | 6733 ft | 278 kts | 76° |
| 2026-05-05 00:43 | 34.02243 | -118.38411 | 6294 ft | 278 kts | 77° |
| 2026-05-05 00:43 | 34.02649 | -118.36156 | 5922 ft | 275 kts | 77° |
| 2026-05-05 00:43 | 34.02961 | -118.33923 | 5756 ft | 264 kts | 83° |
| 2026-05-05 00:43 | 34.03172 | -118.31783 | 5654 ft | 251 kts | 83° |
| 2026-05-05 00:44 | 34.03365 | -118.29723 | 5453 ft | 244 kts | 83° |
| 2026-05-05 00:44 | 34.03570 | -118.27690 | 5137 ft | 243 kts | 83° |
| 2026-05-05 00:44 | 34.03777 | -118.25686 | 4902 ft | 237 kts | 83° |
| 2026-05-05 00:44 | 34.03973 | -118.23720 | 4590 ft | 237 kts | 83° |
| 2026-05-05 00:45 | 34.04157 | -118.21724 | 4198 ft | 240 kts | 84° |
| 2026-05-05 00:45 | 34.04348 | -118.19762 | 3880 ft | 238 kts | 84° |
| 2026-05-05 00:45 | 34.04515 | -118.17767 | 3547 ft | 239 kts | 85° |
| 2026-05-05 00:45 | 34.04664 | -118.15783 | 3241 ft | 240 kts | 88° |
| 2026-05-05 00:46 | 34.04798 | -118.13772 | 3031 ft | 239 kts | 86° |
| 2026-05-05 00:46 | 34.04933 | -118.11816 | 3005 ft | 229 kts | 86° |
| 2026-05-05 00:46 | 34.05093 | -118.09940 | 2994 ft | 220 kts | 85° |
| 2026-05-05 00:46 | 34.05251 | -118.08134 | 2982 ft | 214 kts | 85° |
| 2026-05-05 00:47 | 34.05361 | -118.06360 | 2994 ft | 211 kts | 88° |
| 2026-05-05 00:47 | 34.05419 | -118.04593 | 2965 ft | 209 kts | 102° |
| 2026-05-05 00:47 | 34.04826 | -118.03075 | 2998 ft | 197 kts | 141° |
| 2026-05-05 00:47 | 34.03691 | -118.02374 | 2992 ft | 177 kts | 182° |
| 2026-05-05 00:48 | 34.02566 | -118.02725 | 2997 ft | 165 kts | 221° |
| 2026-05-05 00:48 | 34.01783 | -118.03718 | 2983 ft | 164 kts | 231° |
| 2026-05-05 00:48 | 34.01059 | -118.04739 | 2992 ft | 157 kts | 231° |
| 2026-05-05 00:48 | 34.00348 | -118.05754 | 3000 ft | 163 kts | 231° |
| 2026-05-05 00:49 | 33.99616 | -118.06803 | 2996 ft | 164 kts | 231° |
| 2026-05-05 00:49 | 33.98897 | -118.07858 | 2979 ft | 161 kts | 239° |
| 2026-05-05 00:49 | 33.98602 | -118.09120 | 2998 ft | 159 kts | 261° |
| 2026-05-05 00:49 | 33.98392 | -118.10428 | 2979 ft | 158 kts | 258° |
| 2026-05-05 00:50 | 33.98209 | -118.11690 | 3031 ft | 147 kts | 260° |
| 2026-05-05 00:50 | 33.98061 | -118.12870 | 2977 ft | 138 kts | 261° |
| 2026-05-05 00:50 | 33.97933 | -118.13981 | 2977 ft | 132 kts | 262° |
| 2026-05-05 00:50 | 33.97812 | -118.15076 | 2984 ft | 131 kts | 261° |
| 2026-05-05 00:51 | 33.97694 | -118.16169 | 2990 ft | 132 kts | 262° |
| 2026-05-05 00:51 | 33.97577 | -118.17276 | 3001 ft | 134 kts | 263° |
| 2026-05-05 00:51 | 33.97459 | -118.18402 | 3016 ft | 142 kts | 262° |
| 2026-05-05 00:51 | 33.97319 | -118.19731 | 2981 ft | 174 kts | 262° |
| 2026-05-05 00:52 | 33.97170 | -118.21177 | 2998 ft | 175 kts | 262° |
| 2026-05-05 00:52 | 33.97019 | -118.22628 | 2972 ft | 176 kts | 261° |
| 2026-05-05 00:52 | 33.96865 | -118.24109 | 2799 ft | 180 kts | 262° |
| 2026-05-05 00:52 | 33.96713 | -118.25586 | 2552 ft | 175 kts | 262° |
| 2026-05-05 00:53 | 33.96563 | -118.27032 | 2333 ft | 173 kts | 262° |
| 2026-05-05 00:53 | 33.96415 | -118.28454 | 2107 ft | 174 kts | 261° |
| 2026-05-05 00:53 | 33.96268 | -118.29877 | 1859 ft | 165 kts | 262° |
| 2026-05-05 00:53 | 33.96137 | -118.31163 | 1672 ft | 147 kts | 261° |
| 2026-05-05 00:54 | 33.96013 | -118.32358 | 1462 ft | 141 kts | 262° |
| 2026-05-05 00:54 | 33.95893 | -118.33518 | 1268 ft | 141 kts | 262° |
| 2026-05-05 00:54 | 33.95772 | -118.34700 | 1059 ft | 141 kts | 261° |
| 2026-05-05 00:54 | 33.95658 | -118.35803 | 839 ft | 124 kts | 262° |
| 2026-05-05 00:55 | 33.95531 | -118.36776 | 675 ft | 110 kts | 263° |
| 2026-05-05 00:55 | 33.95443 | -118.37659 | 523 ft | 99 kts | 263° |
| 2026-05-05 00:55 | 33.95399 | -118.38460 | 338 ft | 107 kts | 264° |
| 2026-05-05 00:55 | 33.95317 | -118.39411 | 309 ft | 112 kts | 259° |
| 2026-05-05 00:56 | 33.95184 | -118.40325 | 184 ft | 109 kts | 262° |
| 2026-05-05 00:56 | 33.95091 | -118.41196 | 121 ft | 98 kts | 263° |
| 2026-05-05 00:56 | 33.95062 | -118.41633 | 123 ft | 40 kts | 259° |
| 2026-05-05 00:56 | 33.94954 | -118.41898 | 122 ft | 26 kts | 233° |
| 2026-05-05 00:57 | 33.94875 | -118.42025 | 123 ft | 18 kts | 234° |
| 2026-05-05 00:57 | 33.94797 | -118.42150 | 124 ft | 19 kts | 232° |
| 2026-05-05 00:57 | 33.94713 | -118.42235 | 125 ft | 13 kts | 165° |
| 2026-05-05 00:57 | 33.94697 | -118.42108 | 125 ft | 21 kts | 83° |
| 2026-05-05 00:58 | 33.94719 | -118.41891 | 123 ft | 30 kts | 82° |
| 2026-05-05 00:58 | 33.94746 | -118.41626 | 120 ft | 35 kts | 83° |
| 2026-05-05 00:58 | 33.94790 | -118.41330 | 121 ft | 35 kts | 81° |
| 2026-05-05 00:58 | 33.94821 | -118.41041 | 125 ft | 34 kts | 82° |
| 2026-05-05 00:59 | 33.94847 | -118.40766 | 121 ft | 32 kts | 83° |
| 2026-05-05 00:59 | 33.94874 | -118.40498 | 125 ft | 32 kts | 82° |
| 2026-05-05 00:59 | 33.94853 | -118.40292 | 123 ft | 22 kts | 151° |
| 2026-05-05 00:59 | 33.94728 | -118.40255 | 124 ft | 8 kts | 150° |
| 2026-05-05 01:00 | 33.94725 | -118.40197 | 123 ft | 7 kts | 83° |
| 2026-05-05 01:00 | 33.94726 | -118.40190 | 123 ft | 0 kts | 83° |